createdAt,value
2017-09-12T00:00:30.225Z,94.40
2017-09-12T00:02:56.533Z,94.40
2017-09-12T00:05:22.848Z,94.20
2017-09-12T00:07:49.581Z,94.10
2017-09-12T00:10:16.694Z,93.80
2017-09-12T00:12:43.053Z,93.80
2017-09-12T00:15:09.641Z,94.10
2017-09-12T00:17:35.841Z,94.20
2017-09-12T00:20:02.921Z,95.30
2017-09-12T00:22:29.281Z,95.10
2017-09-12T00:24:56.365Z,96.00
2017-09-12T00:27:22.650Z,96.00
2017-09-12T00:29:49.716Z,97.30
2017-09-12T00:32:15.992Z,97.30
2017-09-12T00:34:42.383Z,97.10
2017-09-12T00:37:08.690Z,97.30
2017-09-12T00:39:34.984Z,96.20
2017-09-12T00:42:01.353Z,96.30
2017-09-12T00:44:27.806Z,96.20
2017-09-12T00:46:55.015Z,96.10
2017-09-12T00:49:21.306Z,96.10
2017-09-12T00:51:47.695Z,95.80
2017-09-12T00:54:14.063Z,95.70
2017-09-12T00:56:40.543Z,95.80
2017-09-12T00:59:06.857Z,95.60
2017-09-12T01:01:33.158Z,95.70
2017-09-12T01:03:59.541Z,95.50
2017-09-12T01:06:25.747Z,95.80
2017-09-12T01:08:52.040Z,95.40
2017-09-12T01:11:18.474Z,95.40
2017-09-12T01:13:45.552Z,96.20
2017-09-12T01:16:11.854Z,96.10
2017-09-12T01:18:39.127Z,96.00
2017-09-12T01:21:06.185Z,96.80
2017-09-12T01:23:32.463Z,96.80
2017-09-12T01:25:58.910Z,97.20
2017-09-12T01:28:26.059Z,97.60
2017-09-12T01:30:52.401Z,97.60
2017-09-12T01:33:19.541Z,98.50
2017-09-12T01:35:45.904Z,98.40
2017-09-12T01:38:12.224Z,98.70
2017-09-12T01:40:38.629Z,98.50
2017-09-12T01:43:05.065Z,98.10
2017-09-12T01:45:31.499Z,98.00
2017-09-12T01:47:57.864Z,97.90
2017-09-12T01:50:24.284Z,97.90
2017-09-12T01:52:51.389Z,98.70
2017-09-12T01:55:17.877Z,98.70
2017-09-12T01:57:44.297Z,99.20
2017-09-12T02:00:10.578Z,99.40
2017-09-12T02:02:36.882Z,99.50
2017-09-12T02:05:03.377Z,99.70
2017-09-12T02:07:29.751Z,99.70
2017-09-12T02:09:56.022Z,99.90
2017-09-12T02:12:22.371Z,99.90
2017-09-12T02:14:48.649Z,99.90
2017-09-12T02:17:14.980Z,99.90
2017-09-12T02:19:41.266Z,99.90
2017-09-12T02:22:07.611Z,99.90
2017-09-12T02:24:34.120Z,99.90
2017-09-12T02:27:00.433Z,99.90
2017-09-12T02:29:26.776Z,99.90
2017-09-12T02:31:52.998Z,99.90
2017-09-12T02:34:19.463Z,99.90
2017-09-12T02:36:45.866Z,99.90
2017-09-12T02:39:12.140Z,99.40
2017-09-12T02:41:39.247Z,99.40
2017-09-12T02:44:05.535Z,99.60
2017-09-12T02:46:31.865Z,98.90
2017-09-12T02:48:58.877Z,98.00
2017-09-12T02:51:25.230Z,98.00
2017-09-12T02:53:52.505Z,97.90
2017-09-12T02:56:19.052Z,97.90
2017-09-12T02:58:45.424Z,97.50
2017-09-12T03:01:11.880Z,97.80
2017-09-12T03:03:38.427Z,97.90
2017-09-12T03:06:05.581Z,97.60
2017-09-12T03:08:31.873Z,97.60
2017-09-12T03:10:58.248Z,97.40
2017-09-12T03:13:24.716Z,96.70
2017-09-12T03:15:51.101Z,96.70
2017-09-12T03:18:18.296Z,96.80
2017-09-12T03:20:44.674Z,96.70
2017-09-12T03:23:11.013Z,96.80
2017-09-12T03:25:37.319Z,97.10
2017-09-12T03:28:03.730Z,97.00
2017-09-12T03:30:30.017Z,96.20
2017-09-12T03:32:56.309Z,95.80
2017-09-12T03:35:22.641Z,95.50
2017-09-12T03:37:49.352Z,95.30
2017-09-12T03:40:15.748Z,95.30
2017-09-12T03:42:42.068Z,95.30
2017-09-12T03:45:08.361Z,95.10
2017-09-12T03:47:34.928Z,95.20
2017-09-12T03:50:01.254Z,95.00
2017-09-12T03:52:27.661Z,94.90
2017-09-12T03:54:54.124Z,95.10
2017-09-12T03:57:20.459Z,95.10
2017-09-12T03:59:46.793Z,95.00
2017-09-12T04:02:13.193Z,95.00
2017-09-12T04:04:39.556Z,95.20
2017-09-12T04:07:05.982Z,94.90
2017-09-12T04:09:32.351Z,95.10
2017-09-12T04:11:59.541Z,95.40
2017-09-12T04:14:25.864Z,95.40
2017-09-12T04:16:52.240Z,95.50
2017-09-12T04:19:18.615Z,95.50
2017-09-12T04:21:44.961Z,95.50
2017-09-12T04:24:11.507Z,95.70
2017-09-12T04:26:37.987Z,95.70
2017-09-12T04:29:05.064Z,96.60
2017-09-12T04:31:31.407Z,96.80
2017-09-12T04:33:57.773Z,96.80
2017-09-12T04:36:24.314Z,97.10
2017-09-12T04:38:50.722Z,97.50
2017-09-12T04:41:17.010Z,97.80
2017-09-12T04:43:43.509Z,98.10
2017-09-12T04:46:09.938Z,97.80
2017-09-12T04:48:36.207Z,97.90
2017-09-12T04:51:03.252Z,97.60
2017-09-12T04:53:29.575Z,97.60
2017-09-12T04:55:55.817Z,97.20
2017-09-12T04:58:22.920Z,96.80
2017-09-12T05:00:49.180Z,96.70
2017-09-12T05:03:15.543Z,96.60
2017-09-12T05:05:41.866Z,96.80
2017-09-12T05:08:08.856Z,95.90
2017-09-12T05:10:35.082Z,95.90
2017-09-12T05:13:01.531Z,95.70
2017-09-12T05:15:27.867Z,95.40
2017-09-12T05:17:54.349Z,95.50
2017-09-12T05:20:21.383Z,95.60
2017-09-12T05:22:47.710Z,95.60
2017-09-12T05:25:14.827Z,95.80
2017-09-12T05:27:41.405Z,95.70
2017-09-12T05:30:07.705Z,95.60
2017-09-12T05:32:33.944Z,95.30
2017-09-12T05:35:00.302Z,95.20
2017-09-12T05:37:27.315Z,94.70
2017-09-12T05:39:53.632Z,94.70
2017-09-12T05:42:19.973Z,94.50
2017-09-12T05:44:46.296Z,94.40
2017-09-12T05:47:12.641Z,94.60
2017-09-12T05:49:38.928Z,94.50
2017-09-12T05:52:05.238Z,94.50
2017-09-12T05:54:31.661Z,94.30
2017-09-12T05:56:57.980Z,94.10
2017-09-12T05:59:24.260Z,94.00
2017-09-12T06:01:50.659Z,93.90
2017-09-12T06:04:18.534Z,93.50
2017-09-12T06:06:45.553Z,93.70
2017-09-12T06:09:11.911Z,93.60
2017-09-12T06:11:38.888Z,93.10
2017-09-12T06:14:05.234Z,93.10
2017-09-12T06:16:31.495Z,92.80
2017-09-12T06:18:57.826Z,92.60
2017-09-12T06:21:24.263Z,93.20
2017-09-12T06:23:50.500Z,92.80
2017-09-12T06:26:17.610Z,92.80
2017-09-12T06:28:43.957Z,92.50
2017-09-12T06:31:10.212Z,92.70
2017-09-12T06:33:36.489Z,92.40
2017-09-12T06:36:02.725Z,92.40
2017-09-12T06:38:29.039Z,92.50
2017-09-12T06:40:56.770Z,92.60
2017-09-12T06:43:23.061Z,92.60
2017-09-12T06:45:49.408Z,92.70
2017-09-12T06:48:15.734Z,93.00
2017-09-12T06:50:42.022Z,92.70
2017-09-12T06:53:08.461Z,92.00
2017-09-12T06:55:34.900Z,91.40
2017-09-12T06:58:01.178Z,91.70
2017-09-12T07:00:27.445Z,91.80
2017-09-12T07:02:53.885Z,92.10
2017-09-12T07:05:20.233Z,92.20
2017-09-12T07:07:46.675Z,92.20
2017-09-12T07:10:12.931Z,92.00
2017-09-12T07:12:40.148Z,91.70
2017-09-12T07:15:06.504Z,91.70
2017-09-12T07:17:32.832Z,91.50
2017-09-12T07:19:59.165Z,91.70
2017-09-12T07:22:25.383Z,91.70
2017-09-12T07:24:51.673Z,91.70
2017-09-12T07:27:17.950Z,91.00
2017-09-12T07:29:44.294Z,91.80
2017-09-12T07:32:11.406Z,91.10
2017-09-12T07:34:37.831Z,90.10
2017-09-12T07:37:04.186Z,90.50
2017-09-12T07:39:30.524Z,90.00
2017-09-12T07:41:56.783Z,91.00
2017-09-12T07:44:23.111Z,90.70
2017-09-12T07:46:49.448Z,91.00
2017-09-12T07:49:16.312Z,90.60
2017-09-12T07:51:42.562Z,91.20
2017-09-12T07:54:08.936Z,90.50
2017-09-12T07:56:35.240Z,90.20
2017-09-12T07:59:01.457Z,88.60
2017-09-12T08:01:27.785Z,86.60
2017-09-12T08:03:54.141Z,85.10
2017-09-12T08:06:20.525Z,82.80
2017-09-12T08:08:46.800Z,82.90
2017-09-12T08:11:13.055Z,83.50
2017-09-12T08:13:39.386Z,82.90
2017-09-12T08:16:05.673Z,84.30
2017-09-12T08:18:32.994Z,81.20
2017-09-12T08:20:59.454Z,79.40
2017-09-12T08:23:25.817Z,78.30
2017-09-12T08:25:52.126Z,77.80
2017-09-12T08:28:18.485Z,78.10
2017-09-12T08:30:44.948Z,77.00
2017-09-12T08:33:11.291Z,78.20
2017-09-12T08:35:37.739Z,79.40
2017-09-12T08:38:04.134Z,81.70
2017-09-12T08:40:30.665Z,82.10
2017-09-12T08:42:56.960Z,83.10
2017-09-12T08:45:23.421Z,83.40
2017-09-12T08:47:49.872Z,82.90
2017-09-12T08:50:16.218Z,82.70
2017-09-12T08:52:42.598Z,83.20
2017-09-12T08:55:08.958Z,82.70
2017-09-12T08:57:35.316Z,84.30
2017-09-12T09:00:01.680Z,84.80
2017-09-12T09:02:28.025Z,84.10
2017-09-12T09:04:54.227Z,81.20
2017-09-12T09:07:21.297Z,79.20
2017-09-12T09:09:47.601Z,79.20
2017-09-12T09:12:14.820Z,81.30
2017-09-12T09:14:41.084Z,81.20
2017-09-12T09:17:08.089Z,79.90
2017-09-12T09:19:34.389Z,79.70
2017-09-12T09:22:00.732Z,83.50
2017-09-12T09:24:27.035Z,81.20
2017-09-12T09:26:53.288Z,82.00
2017-09-12T09:29:19.572Z,78.20
2017-09-12T09:31:46.724Z,81.40
2017-09-12T09:34:13.038Z,81.10
2017-09-12T09:36:39.368Z,80.50
2017-09-12T09:39:05.670Z,83.70
2017-09-12T09:41:32.064Z,85.70
2017-09-12T09:43:58.492Z,87.70
2017-09-12T09:46:25.565Z,87.10
2017-09-12T09:48:51.861Z,87.00
2017-09-12T09:51:18.147Z,88.30
2017-09-12T09:53:44.389Z,85.20
2017-09-12T09:56:10.758Z,86.80
2017-09-12T09:58:37.061Z,84.40
2017-09-12T10:01:03.472Z,87.30
2017-09-12T10:03:29.719Z,88.40
2017-09-12T10:05:57.095Z,90.20
2017-09-12T10:08:24.153Z,92.40
2017-09-12T10:10:51.635Z,94.10
2017-09-12T10:13:17.992Z,94.10
2017-09-12T10:15:44.329Z,94.90
2017-09-12T10:18:11.050Z,95.40
2017-09-12T10:20:38.012Z,94.80
2017-09-12T10:23:05.596Z,95.20
2017-09-12T10:25:32.424Z,95.60
2017-09-12T10:27:59.111Z,94.00
2017-09-12T10:30:26.454Z,94.90
2017-09-12T10:32:52.753Z,94.70
2017-09-12T10:35:19.097Z,93.40
2017-09-12T10:37:45.580Z,93.10
2017-09-12T10:40:12.879Z,92.50
2017-09-12T10:42:39.265Z,92.50
2017-09-12T10:45:05.610Z,90.70
2017-09-12T10:47:31.894Z,90.20
2017-09-12T10:49:58.392Z,89.10
2017-09-12T10:52:24.689Z,90.10
2017-09-12T10:54:51.169Z,89.90
2017-09-12T10:57:17.608Z,90.50
2017-09-12T10:59:45.194Z,90.50
2017-09-12T11:02:11.733Z,90.60
2017-09-12T11:04:38.269Z,90.40
2017-09-12T11:07:04.684Z,89.50
2017-09-12T11:09:31.121Z,90.30
2017-09-12T11:11:57.751Z,93.20
2017-09-12T11:14:24.326Z,94.90
2017-09-12T11:16:51.434Z,93.10
2017-09-12T11:19:17.932Z,92.90
2017-09-12T11:21:44.352Z,92.00
2017-09-12T11:24:11.524Z,82.70
2017-09-12T11:26:38.054Z,82.60
2017-09-12T11:29:04.489Z,84.00
2017-09-12T11:31:30.964Z,79.70
2017-09-12T11:33:57.438Z,78.70
2017-09-12T11:36:24.460Z,77.70
2017-09-12T11:38:50.960Z,71.20
2017-09-12T11:41:17.385Z,73.10
2017-09-12T11:43:43.953Z,71.70
2017-09-12T11:46:10.477Z,73.40
2017-09-12T11:48:37.911Z,76.90
2017-09-12T11:51:04.456Z,78.20
2017-09-12T11:53:30.945Z,83.20
2017-09-12T11:55:57.479Z,85.60
2017-09-12T11:58:23.893Z,88.20
2017-09-12T12:00:50.489Z,92.20
2017-09-12T12:03:17.740Z,92.40
2017-09-12T12:05:44.255Z,94.40
2017-09-12T12:08:10.782Z,95.60
2017-09-12T12:10:37.121Z,96.80
2017-09-12T12:13:04.340Z,94.90
2017-09-12T12:15:30.889Z,94.80
2017-09-12T12:17:57.279Z,94.40
2017-09-12T12:20:23.609Z,93.40
2017-09-12T12:22:50.071Z,94.20
2017-09-12T12:25:16.451Z,95.40
2017-09-12T12:27:42.970Z,93.30
2017-09-12T12:30:09.350Z,95.60
2017-09-12T12:32:35.644Z,93.60
2017-09-12T12:35:02.023Z,95.60
2017-09-12T12:37:28.582Z,93.10
2017-09-12T12:39:54.926Z,93.20
2017-09-12T12:42:21.529Z,93.00
2017-09-12T12:44:47.944Z,88.20
2017-09-12T12:47:14.410Z,85.60
2017-09-12T12:49:40.760Z,87.40
2017-09-12T12:52:07.194Z,80.70
2017-09-12T12:54:33.740Z,79.90
2017-09-12T12:57:00.866Z,79.80
2017-09-12T12:59:27.220Z,80.20
2017-09-12T13:01:54.446Z,77.20
2017-09-12T13:04:20.819Z,77.20
2017-09-12T13:06:48.046Z,74.00
2017-09-12T13:09:14.413Z,74.20
2017-09-12T13:11:40.932Z,78.00
2017-09-12T13:14:08.295Z,77.00
2017-09-12T13:16:34.742Z,77.10
2017-09-12T13:19:01.364Z,78.00
2017-09-12T13:21:28.648Z,77.90
2017-09-12T13:23:55.071Z,77.50
2017-09-12T13:26:21.639Z,79.10
2017-09-12T13:28:47.934Z,81.00
2017-09-12T13:31:14.365Z,83.00
2017-09-12T13:33:41.434Z,80.70
2017-09-12T13:36:07.918Z,80.60
2017-09-12T13:38:34.361Z,75.80
2017-09-12T13:41:00.718Z,76.10
2017-09-12T13:43:27.267Z,77.40
2017-09-12T13:45:53.803Z,79.80
2017-09-12T13:48:20.335Z,82.00
2017-09-12T13:50:46.811Z,87.30
2017-09-12T13:53:13.292Z,90.60
2017-09-12T13:55:39.716Z,93.60
2017-09-12T13:58:06.217Z,95.80
2017-09-12T14:00:32.616Z,97.60
2017-09-12T14:02:59.088Z,99.00
2017-09-12T14:05:25.487Z,99.50
2017-09-12T14:07:52.375Z,99.70
2017-09-12T14:10:18.784Z,99.10
2017-09-12T14:12:45.291Z,99.00
2017-09-12T14:15:11.913Z,97.50
2017-09-12T14:17:38.459Z,98.30
2017-09-12T14:20:04.936Z,96.70
2017-09-12T14:22:31.472Z,97.10
2017-09-12T14:24:58.044Z,96.40
2017-09-12T14:27:24.560Z,96.40
2017-09-12T14:29:51.057Z,97.30
2017-09-12T14:32:17.515Z,99.20
2017-09-12T14:34:44.030Z,98.50
2017-09-12T14:37:10.633Z,99.70
2017-09-12T14:39:37.091Z,99.20
2017-09-12T14:42:03.532Z,98.30
2017-09-12T14:44:30.040Z,98.10
2017-09-12T14:46:56.427Z,98.40
2017-09-12T14:49:22.847Z,99.00
2017-09-12T14:51:50.727Z,99.20
2017-09-12T14:54:17.177Z,97.90
2017-09-12T14:56:43.678Z,96.70
2017-09-12T14:59:10.153Z,96.00
2017-09-12T15:01:36.685Z,97.80
2017-09-12T15:04:03.418Z,96.90
2017-09-12T15:06:29.999Z,96.70
2017-09-12T15:08:56.493Z,98.00
2017-09-12T15:11:23.116Z,98.00
2017-09-12T15:13:49.708Z,97.10
2017-09-12T15:16:16.226Z,97.40
2017-09-12T15:18:42.917Z,98.30
2017-09-12T15:21:09.522Z,97.60
2017-09-12T15:23:36.027Z,97.60
2017-09-12T15:26:02.435Z,97.60
2017-09-12T15:28:29.021Z,96.40
2017-09-12T15:30:55.462Z,95.90
2017-09-12T15:33:21.880Z,95.20
2017-09-12T15:35:48.481Z,97.50
2017-09-12T15:38:14.932Z,96.80
2017-09-12T15:40:41.480Z,96.60
2017-09-12T15:43:07.883Z,98.50
2017-09-12T15:45:34.316Z,98.80
2017-09-12T15:48:00.668Z,98.20
2017-09-12T15:50:27.831Z,97.40
2017-09-12T15:52:54.342Z,97.40
2017-09-12T15:55:20.760Z,98.10
2017-09-12T15:57:47.190Z,98.40
2017-09-12T16:00:13.653Z,97.70
2017-09-12T16:02:40.836Z,98.20
2017-09-12T16:05:08.503Z,98.20
2017-09-12T16:07:34.834Z,98.50
2017-09-12T16:10:01.232Z,98.90
2017-09-12T16:12:27.614Z,97.30
2017-09-12T16:14:54.001Z,97.40
2017-09-12T16:17:20.515Z,96.90
2017-09-12T16:19:46.883Z,97.60
2017-09-12T16:22:13.946Z,96.70
2017-09-12T16:24:40.356Z,96.60
2017-09-12T16:27:06.803Z,95.90
2017-09-12T16:29:33.622Z,94.40
2017-09-12T16:32:00.033Z,95.50
2017-09-12T16:34:26.411Z,95.70
2017-09-12T16:36:52.912Z,96.80
2017-09-12T16:39:19.270Z,97.50
2017-09-12T16:41:46.474Z,97.00
2017-09-12T16:44:12.998Z,97.00
2017-09-12T16:46:39.400Z,98.80
2017-09-12T16:49:05.838Z,99.50
2017-09-12T16:51:32.267Z,99.60
2017-09-12T16:53:59.632Z,98.20
2017-09-12T16:56:27.315Z,98.20
2017-09-12T16:58:53.757Z,98.10
2017-09-12T17:01:20.177Z,98.20
2017-09-12T17:03:46.664Z,99.20
2017-09-12T17:06:13.231Z,99.40
2017-09-12T17:08:39.717Z,99.90
2017-09-12T17:11:06.087Z,99.40
2017-09-12T17:13:33.328Z,99.90
2017-09-12T17:16:00.658Z,99.90
2017-09-12T17:18:28.058Z,99.90
2017-09-12T17:20:55.237Z,99.90
2017-09-12T17:23:21.663Z,99.90
2017-09-12T17:25:48.865Z,99.90
2017-09-12T17:28:15.393Z,99.90
2017-09-12T17:30:41.763Z,99.90
2017-09-12T17:33:08.124Z,99.90
2017-09-12T17:35:34.706Z,99.90
2017-09-12T17:38:01.062Z,99.90
2017-09-12T17:40:28.362Z,99.90
2017-09-12T17:42:54.818Z,99.90
2017-09-12T17:45:21.735Z,99.90
2017-09-12T17:47:48.270Z,99.90
2017-09-12T17:50:14.657Z,99.90
2017-09-12T17:52:41.087Z,99.90
2017-09-12T17:55:07.519Z,99.90
2017-09-12T17:57:34.103Z,99.90
2017-09-12T18:00:00.497Z,99.90
2017-09-12T18:02:26.914Z,99.90
2017-09-12T18:04:53.333Z,99.90
2017-09-12T18:07:19.829Z,99.90
2017-09-12T18:09:46.398Z,99.90
2017-09-12T18:12:12.872Z,99.90
2017-09-12T18:14:39.335Z,99.90
2017-09-12T18:17:05.664Z,99.90
2017-09-12T18:19:33.085Z,99.90
2017-09-12T18:21:59.374Z,99.90
2017-09-12T18:24:25.822Z,99.90
2017-09-12T18:26:52.467Z,99.90
2017-09-12T18:29:18.970Z,99.90
2017-09-12T18:31:45.476Z,99.90
2017-09-12T18:34:12.031Z,99.90
2017-09-12T18:36:38.589Z,99.90
2017-09-12T18:39:04.915Z,99.90
2017-09-12T18:41:31.421Z,99.90
2017-09-12T18:43:57.841Z,99.90
2017-09-12T18:46:24.358Z,99.90
2017-09-12T18:48:50.892Z,99.90
2017-09-12T18:51:17.462Z,99.90
2017-09-12T18:53:43.949Z,99.90
2017-09-12T18:56:10.422Z,99.90
2017-09-12T18:58:37.615Z,99.90
2017-09-12T19:01:04.112Z,99.90
2017-09-12T19:03:30.887Z,99.90
2017-09-12T19:05:57.478Z,99.90
2017-09-12T19:08:24.699Z,99.90
2017-09-12T19:10:51.311Z,99.90
2017-09-12T19:13:17.804Z,99.90
2017-09-12T19:15:44.438Z,99.90
2017-09-12T19:18:11.486Z,99.90
2017-09-12T19:20:37.938Z,99.90
2017-09-12T19:23:05.109Z,99.90
2017-09-12T19:25:31.514Z,99.90
2017-09-12T19:27:57.968Z,99.90
2017-09-12T19:30:24.540Z,99.90
2017-09-12T19:32:51.040Z,99.90
2017-09-12T19:35:18.049Z,99.90
2017-09-12T19:37:44.692Z,99.90
2017-09-12T19:40:11.072Z,99.90
2017-09-12T19:42:37.581Z,99.90
2017-09-12T19:45:04.146Z,99.90
2017-09-12T19:47:30.958Z,99.90
2017-09-12T19:49:58.042Z,99.90
2017-09-12T19:52:24.418Z,99.90
2017-09-12T19:54:50.888Z,99.90
2017-09-12T19:57:17.506Z,99.90
2017-09-12T19:59:44.764Z,99.90
2017-09-12T20:02:11.970Z,99.90
2017-09-12T20:04:38.364Z,99.90
2017-09-12T20:07:04.931Z,99.90
2017-09-12T20:09:32.211Z,99.90
2017-09-12T20:11:58.861Z,99.90
2017-09-12T20:14:25.218Z,99.90
2017-09-12T20:16:51.638Z,99.90
2017-09-12T20:19:18.863Z,99.90
2017-09-12T20:21:45.590Z,99.90
2017-09-12T20:24:12.209Z,99.90
2017-09-12T20:26:38.651Z,99.90
2017-09-12T20:29:05.054Z,99.90
2017-09-12T20:31:31.574Z,99.90
2017-09-12T20:33:57.899Z,99.90
2017-09-12T20:36:24.343Z,99.90
2017-09-12T20:38:50.797Z,99.90
2017-09-12T20:41:18.018Z,99.90
2017-09-12T20:43:44.590Z,99.90
2017-09-12T20:46:11.080Z,99.90
2017-09-12T20:48:37.520Z,99.90
2017-09-12T20:51:03.898Z,99.90
2017-09-12T20:53:30.277Z,99.90
2017-09-12T20:55:56.887Z,99.90
2017-09-12T20:58:23.272Z,99.90
2017-09-12T21:00:50.655Z,99.90
2017-09-12T21:03:17.200Z,99.90
2017-09-12T21:05:43.566Z,99.90
2017-09-12T21:08:09.985Z,99.90
2017-09-12T21:10:36.343Z,99.90
2017-09-12T21:13:02.769Z,99.90
2017-09-12T21:15:29.192Z,99.90
2017-09-12T21:17:55.652Z,99.90
2017-09-12T21:20:22.082Z,99.90
2017-09-12T21:22:48.543Z,99.90
2017-09-12T21:25:15.151Z,99.90
2017-09-12T21:27:42.300Z,99.90
2017-09-12T21:30:08.647Z,99.90
2017-09-12T21:32:35.129Z,99.90
2017-09-12T21:35:01.510Z,99.90
2017-09-12T21:37:27.919Z,99.90
2017-09-12T21:39:54.412Z,99.90
2017-09-12T21:42:20.861Z,99.90
2017-09-12T21:44:47.502Z,99.90
2017-09-12T21:47:14.101Z,99.90
2017-09-12T21:49:40.488Z,99.90
2017-09-12T21:52:06.887Z,99.90
2017-09-12T21:54:34.141Z,99.90
2017-09-12T21:57:00.608Z,99.90
2017-09-12T21:59:27.112Z,99.90
2017-09-12T22:01:53.441Z,99.90
2017-09-12T22:04:20.586Z,99.90
2017-09-12T22:06:47.044Z,99.90
2017-09-12T22:09:13.414Z,99.90
2017-09-12T22:11:39.786Z,99.90
2017-09-12T22:14:06.999Z,99.90
2017-09-12T22:16:33.478Z,99.90
2017-09-12T22:19:00.015Z,99.90
2017-09-12T22:21:26.390Z,99.90
2017-09-12T22:23:52.918Z,99.90
2017-09-12T22:26:19.359Z,99.90
2017-09-12T22:28:45.671Z,99.90
2017-09-12T22:31:12.021Z,99.90
2017-09-12T22:33:38.490Z,99.90
2017-09-12T22:36:04.929Z,99.90
2017-09-12T22:38:31.249Z,99.90
2017-09-12T22:40:57.698Z,99.90
2017-09-12T22:43:24.916Z,99.90
2017-09-12T22:45:51.453Z,99.90
2017-09-12T22:48:17.862Z,99.90
2017-09-12T22:50:44.269Z,99.90
2017-09-12T22:53:10.774Z,99.90
2017-09-12T22:55:37.208Z,99.90
2017-09-12T22:58:03.569Z,99.90
2017-09-12T23:00:30.013Z,99.90
2017-09-12T23:02:56.426Z,99.90
2017-09-12T23:05:23.791Z,99.90
2017-09-12T23:07:50.602Z,99.90
2017-09-12T23:10:17.111Z,99.90
2017-09-12T23:12:43.663Z,99.90
2017-09-12T23:15:10.524Z,99.90
2017-09-12T23:17:36.900Z,99.90
2017-09-12T23:20:03.988Z,99.90
2017-09-12T23:22:32.381Z,99.90
2017-09-12T23:24:58.897Z,99.90
2017-09-12T23:27:25.701Z,99.90
2017-09-12T23:29:52.302Z,99.90
2017-09-12T23:32:19.604Z,99.90
2017-09-12T23:34:46.219Z,99.90
2017-09-12T23:37:12.799Z,99.90
2017-09-12T23:39:39.098Z,99.90
2017-09-12T23:42:05.570Z,99.90
2017-09-12T23:44:32.104Z,99.90
2017-09-12T23:46:58.544Z,99.90
2017-09-12T23:49:24.917Z,99.90
2017-09-12T23:51:52.142Z,99.90
2017-09-12T23:54:18.485Z,99.90
2017-09-12T23:56:44.941Z,99.90
2017-09-12T23:59:11.372Z,99.90
